sensor_id;sensor_type;location;lat;lon;timestamp;temperature;humidity
5919;DHT22;2985;48.142;16.344;2023-04-08T02:25:16;4.30;99.90
5919;DHT22;2985;48.142;16.344;2023-04-08T02:30:27;4.40;99.90
5919;DHT22;2985;48.142;16.344;2023-04-08T02:35:39;4.30;99.90
5919;DHT22;2985;48.142;16.344;2023-04-08T02:40:49;4.20;99.90
5919;DHT22;2985;48.142;16.344;2023-04-08T02:46:02;4.10;99.90
5919;DHT22;2985;48.142;16.344;2023-04-08T02:51:12;4.10;99.90
5919;DHT22;2985;48.142;16.344;2023-04-08T02:56:21;3.90;99.90
5919;DHT22;2985;48.142;16.344;2023-04-08T03:01:30;4.00;99.90
5919;DHT22;2985;48.142;16.344;2023-04-08T03:06:40;4.00;99.90
5919;DHT22;2985;48.142;16.344;2023-04-08T03:11:49;3.80;99.90
5919;DHT22;2985;48.142;16.344;2023-04-08T03:17:01;3.70;99.90
5919;DHT22;2985;48.142;16.344;2023-04-08T03:22:10;3.60;99.90
5919;DHT22;2985;48.142;16.344;2023-04-08T03:27:19;3.60;99.90
5919;DHT22;2985;48.142;16.344;2023-04-08T03:32:28;3.60;99.90
5919;DHT22;2985;48.142;16.344;2023-04-08T03:37:37;3.50;99.90
5919;DHT22;2985;48.142;16.344;2023-04-08T03:42:46;3.60;99.90
5919;DHT22;2985;48.142;16.344;2023-04-08T03:47:56;3.50;99.90
5919;DHT22;2985;48.142;16.344;2023-04-08T03:53:05;3.60;99.90
5919;DHT22;2985;48.142;16.344;2023-04-08T03:58:14;3.50;99.90
5919;DHT22;2985;48.142;16.344;2023-04-08T04:03:24;3.40;99.90
5919;DHT22;2985;48.142;16.344;2023-04-08T04:08:33;3.40;99.90
5919;DHT22;2985;48.142;16.344;2023-04-08T04:13:42;3.40;99.90
5919;DHT22;2985;48.142;16.344;2023-04-08T04:18:52;3.40;99.90
5919;DHT22;2985;48.142;16.344;2023-04-08T04:24:01;3.40;99.90
5919;DHT22;2985;48.142;16.344;2023-04-08T04:29:11;2.80;99.90
5919;DHT22;2985;48.142;16.344;2023-04-08T04:34:20;2.80;99.90
5919;DHT22;2985;48.142;16.344;2023-04-08T04:39:29;2.80;99.90
5919;DHT22;2985;48.142;16.344;2023-04-08T04:44:39;2.80;99.90
5919;DHT22;2985;48.142;16.344;2023-04-08T04:49:48;2.80;99.90
5919;DHT22;2985;48.142;16.344;2023-04-08T04:54:58;3.10;99.90
5919;DHT22;2985;48.142;16.344;2023-04-08T05:00:07;3.30;99.90
5919;DHT22;2985;48.142;16.344;2023-04-08T05:05:17;3.30;99.90
5919;DHT22;2985;48.142;16.344;2023-04-08T05:10:27;3.20;99.90
5919;DHT22;2985;48.142;16.344;2023-04-08T05:15:36;3.40;99.90
5919;DHT22;2985;48.142;16.344;2023-04-08T05:20:45;3.50;99.90
5919;DHT22;2985;48.142;16.344;2023-04-08T05:25:55;3.60;99.90
5919;DHT22;2985;48.142;16.344;2023-04-08T05:31:05;3.70;99.90
5919;DHT22;2985;48.142;16.344;2023-04-08T05:36:14;3.70;99.90
5919;DHT22;2985;48.142;16.344;2023-04-08T05:41:23;3.80;99.90
5919;DHT22;2985;48.142;16.344;2023-04-08T05:46:33;3.70;99.90
5919;DHT22;2985;48.142;16.344;2023-04-08T05:51:42;3.80;99.90
5919;DHT22;2985;48.142;16.344;2023-04-08T05:56:51;3.80;99.90
5919;DHT22;2985;48.142;16.344;2023-04-08T06:02:00;3.60;99.90
5919;DHT22;2985;48.142;16.344;2023-04-08T06:07:10;3.30;99.90
5919;DHT22;2985;48.142;16.344;2023-04-08T06:12:19;3.30;99.90
5919;DHT22;2985;48.142;16.344;2023-04-08T06:17:28;3.30;99.90
5919;DHT22;2985;48.142;16.344;2023-04-08T06:22:37;3.40;99.90
5919;DHT22;2985;48.142;16.344;2023-04-08T06:27:46;3.30;99.90
5919;DHT22;2985;48.142;16.344;2023-04-08T06:32:56;3.30;99.90
5919;DHT22;2985;48.142;16.344;2023-04-08T06:38:05;3.30;99.90
5919;DHT22;2985;48.142;16.344;2023-04-08T06:43:14;3.40;99.90
5919;DHT22;2985;48.142;16.344;2023-04-08T06:48:24;3.40;99.90
5919;DHT22;2985;48.142;16.344;2023-04-08T06:53:38;3.30;99.90
5919;DHT22;2985;48.142;16.344;2023-04-08T06:58:48;3.40;99.90
5919;DHT22;2985;48.142;16.344;2023-04-08T07:03:57;3.50;99.90
5919;DHT22;2985;48.142;16.344;2023-04-08T07:09:07;3.40;99.90
5919;DHT22;2985;48.142;16.344;2023-04-08T07:14:17;3.40;99.90
5919;DHT22;2985;48.142;16.344;2023-04-08T07:19:27;3.40;99.90
5919;DHT22;2985;48.142;16.344;2023-04-08T07:24:36;3.60;99.90
5919;DHT22;2985;48.142;16.344;2023-04-08T07:29:45;3.70;99.90
5919;DHT22;2985;48.142;16.344;2023-04-08T07:34:55;3.80;99.90
5919;DHT22;2985;48.142;16.344;2023-04-08T07:40:04;3.80;99.90
5919;DHT22;2985;48.142;16.344;2023-04-08T07:45:14;3.90;99.90
5919;DHT22;2985;48.142;16.344;2023-04-08T07:50:23;3.90;99.90
5919;DHT22;2985;48.142;16.344;2023-04-08T07:55:33;4.00;99.90
5919;DHT22;2985;48.142;16.344;2023-04-08T08:00:43;4.10;99.90
5919;DHT22;2985;48.142;16.344;2023-04-08T08:05:52;4.30;99.90
5919;DHT22;2985;48.142;16.344;2023-04-08T08:11:01;4.40;99.90
5919;DHT22;2985;48.142;16.344;2023-04-08T08:16:10;4.50;99.90
5919;DHT22;2985;48.142;16.344;2023-04-08T08:21:20;4.50;99.90
5919;DHT22;2985;48.142;16.344;2023-04-08T08:26:29;4.60;99.90
5919;DHT22;2985;48.142;16.344;2023-04-08T08:31:39;4.60;99.90
5919;DHT22;2985;48.142;16.344;2023-04-08T08:36:48;4.60;99.90
5919;DHT22;2985;48.142;16.344;2023-04-08T08:41:58;4.60;99.90
5919;DHT22;2985;48.142;16.344;2023-04-08T08:47:07;4.60;99.90
5919;DHT22;2985;48.142;16.344;2023-04-08T08:52:16;4.70;99.90
5919;DHT22;2985;48.142;16.344;2023-04-08T08:57:28;4.70;99.90
5919;DHT22;2985;48.142;16.344;2023-04-08T09:02:37;4.70;99.90
5919;DHT22;2985;48.142;16.344;2023-04-08T09:07:47;4.80;99.90
5919;DHT22;2985;48.142;16.344;2023-04-08T09:12:56;5.00;99.90
5919;DHT22;2985;48.142;16.344;2023-04-08T09:18:20;5.10;99.90
5919;DHT22;2985;48.142;16.344;2023-04-08T09:23:46;5.00;99.90
5919;DHT22;2985;48.142;16.344;2023-04-08T09:34:11;5.00;99.90
5919;DHT22;2985;48.142;16.344;2023-04-08T09:39:20;5.00;99.90
5919;DHT22;2985;48.142;16.344;2023-04-08T09:44:31;4.90;99.90
5919;DHT22;2985;48.142;16.344;2023-04-08T09:49:56;4.90;99.90
5919;DHT22;2985;48.142;16.344;2023-04-08T09:55:08;4.90;99.90
5919;DHT22;2985;48.142;16.344;2023-04-08T10:00:18;4.90;99.90
5919;DHT22;2985;48.142;16.344;2023-04-08T10:05:30;5.10;99.90
5919;DHT22;2985;48.142;16.344;2023-04-08T10:10:40;5.30;99.90
5919;DHT22;2985;48.142;16.344;2023-04-08T10:15:50;5.50;99.90
5919;DHT22;2985;48.142;16.344;2023-04-08T10:21:38;5.50;99.90
5919;DHT22;2985;48.142;16.344;2023-04-08T10:26:48;5.50;99.90
5919;DHT22;2985;48.142;16.344;2023-04-08T10:31:57;5.90;99.90
5919;DHT22;2985;48.142;16.344;2023-04-08T10:37:07;5.20;99.90
5919;DHT22;2985;48.142;16.344;2023-04-08T10:42:18;5.30;99.90
5919;DHT22;2985;48.142;16.344;2023-04-08T10:47:28;5.40;99.90
5919;DHT22;2985;48.142;16.344;2023-04-08T10:52:49;5.00;99.90
5919;DHT22;2985;48.142;16.344;2023-04-08T10:58:06;5.00;99.90
5919;DHT22;2985;48.142;16.344;2023-04-08T11:03:15;5.10;99.90
5919;DHT22;2985;48.142;16.344;2023-04-08T11:08:28;5.30;99.90
5919;DHT22;2985;48.142;16.344;2023-04-08T11:13:40;5.30;99.90
5919;DHT22;2985;48.142;16.344;2023-04-08T11:18:50;5.30;99.90
5919;DHT22;2985;48.142;16.344;2023-04-08T11:23:59;5.40;99.90
5919;DHT22;2985;48.142;16.344;2023-04-08T11:29:12;5.30;99.90
5919;DHT22;2985;48.142;16.344;2023-04-08T11:34:23;5.30;99.90
5919;DHT22;2985;48.142;16.344;2023-04-08T11:39:33;5.40;99.90
5919;DHT22;2985;48.142;16.344;2023-04-08T11:44:43;5.40;99.90
5919;DHT22;2985;48.142;16.344;2023-04-08T11:49:52;5.40;99.90
5919;DHT22;2985;48.142;16.344;2023-04-08T11:55:01;5.30;99.90
5919;DHT22;2985;48.142;16.344;2023-04-08T12:00:12;5.30;99.90
5919;DHT22;2985;48.142;16.344;2023-04-08T12:05:21;5.30;99.90
5919;DHT22;2985;48.142;16.344;2023-04-08T12:10:31;5.30;99.90
5919;DHT22;2985;48.142;16.344;2023-04-08T12:15:40;5.30;99.90
5919;DHT22;2985;48.142;16.344;2023-04-08T12:20:50;5.50;99.90
5919;DHT22;2985;48.142;16.344;2023-04-08T12:25:59;5.90;99.90
5919;DHT22;2985;48.142;16.344;2023-04-08T12:31:08;6.10;99.90
5919;DHT22;2985;48.142;16.344;2023-04-08T12:36:18;6.20;99.90
5919;DHT22;2985;48.142;16.344;2023-04-08T12:41:27;6.20;99.90
5919;DHT22;2985;48.142;16.344;2023-04-08T12:46:36;6.20;99.90
5919;DHT22;2985;48.142;16.344;2023-04-08T12:51:45;6.20;99.90
5919;DHT22;2985;48.142;16.344;2023-04-08T12:56:55;6.00;99.90
5919;DHT22;2985;48.142;16.344;2023-04-08T13:02:06;6.00;99.90
5919;DHT22;2985;48.142;16.344;2023-04-08T13:07:15;6.00;99.90
5919;DHT22;2985;48.142;16.344;2023-04-08T13:12:24;6.20;99.90
5919;DHT22;2985;48.142;16.344;2023-04-08T13:17:35;6.10;99.90
5919;DHT22;2985;48.142;16.344;2023-04-08T13:22:44;6.20;99.90
5919;DHT22;2985;48.142;16.344;2023-04-08T13:27:54;5.80;99.90
5919;DHT22;2985;48.142;16.344;2023-04-08T13:33:04;6.00;99.90
5919;DHT22;2985;48.142;16.344;2023-04-08T13:38:13;6.10;99.90
5919;DHT22;2985;48.142;16.344;2023-04-08T13:43:23;6.00;99.90
5919;DHT22;2985;48.142;16.344;2023-04-08T13:48:32;6.20;99.90
5919;DHT22;2985;48.142;16.344;2023-04-08T13:53:41;6.30;99.90
5919;DHT22;2985;48.142;16.344;2023-04-08T13:58:51;6.30;99.90
5919;DHT22;2985;48.142;16.344;2023-04-08T14:04:00;6.40;99.90
5919;DHT22;2985;48.142;16.344;2023-04-08T14:09:09;6.60;99.90
5919;DHT22;2985;48.142;16.344;2023-04-08T14:14:19;6.80;99.90
5919;DHT22;2985;48.142;16.344;2023-04-08T14:19:28;6.70;99.90
5919;DHT22;2985;48.142;16.344;2023-04-08T14:24:38;6.70;99.90
5919;DHT22;2985;48.142;16.344;2023-04-08T14:29:47;6.80;99.90
5919;DHT22;2985;48.142;16.344;2023-04-08T14:34:56;6.70;99.90
5919;DHT22;2985;48.142;16.344;2023-04-08T14:40:06;6.70;99.90
5919;DHT22;2985;48.142;16.344;2023-04-08T14:45:16;6.80;99.90
5919;DHT22;2985;48.142;16.344;2023-04-08T14:50:25;6.70;99.90
5919;DHT22;2985;48.142;16.344;2023-04-08T14:55:35;6.40;99.90
5919;DHT22;2985;48.142;16.344;2023-04-08T15:00:45;6.40;99.90
5919;DHT22;2985;48.142;16.344;2023-04-08T15:05:56;6.60;99.90
5919;DHT22;2985;48.142;16.344;2023-04-08T15:11:06;6.70;99.90
5919;DHT22;2985;48.142;16.344;2023-04-08T15:16:16;6.40;99.90
5919;DHT22;2985;48.142;16.344;2023-04-08T15:21:26;6.20;99.90
5919;DHT22;2985;48.142;16.344;2023-04-08T15:26:35;6.30;99.90
5919;DHT22;2985;48.142;16.344;2023-04-08T15:31:44;6.40;99.90
5919;DHT22;2985;48.142;16.344;2023-04-08T15:36:54;6.40;99.90
5919;DHT22;2985;48.142;16.344;2023-04-08T15:42:07;6.40;99.90
5919;DHT22;2985;48.142;16.344;2023-04-08T15:47:17;6.30;99.90
5919;DHT22;2985;48.142;16.344;2023-04-08T15:52:27;6.00;99.90
5919;DHT22;2985;48.142;16.344;2023-04-08T15:57:36;6.00;99.90
5919;DHT22;2985;48.142;16.344;2023-04-08T16:02:45;6.10;99.90
5919;DHT22;2985;48.142;16.344;2023-04-08T16:07:54;6.10;99.90
5919;DHT22;2985;48.142;16.344;2023-04-08T16:13:04;6.00;99.90
5919;DHT22;2985;48.142;16.344;2023-04-08T16:18:13;6.10;99.90
5919;DHT22;2985;48.142;16.344;2023-04-08T16:23:23;6.10;99.90
5919;DHT22;2985;48.142;16.344;2023-04-08T16:28:32;6.10;99.90
5919;DHT22;2985;48.142;16.344;2023-04-08T16:33:42;6.10;99.90
5919;DHT22;2985;48.142;16.344;2023-04-08T16:38:51;6.10;99.90
5919;DHT22;2985;48.142;16.344;2023-04-08T16:44:02;6.10;99.90
5919;DHT22;2985;48.142;16.344;2023-04-08T16:49:12;6.10;99.90
5919;DHT22;2985;48.142;16.344;2023-04-08T16:54:21;6.00;99.90
5919;DHT22;2985;48.142;16.344;2023-04-08T16:59:30;5.90;99.90
5919;DHT22;2985;48.142;16.344;2023-04-08T17:04:39;5.90;99.90
5919;DHT22;2985;48.142;16.344;2023-04-08T17:09:49;5.90;99.90
5919;DHT22;2985;48.142;16.344;2023-04-08T17:15:02;5.90;99.90
5919;DHT22;2985;48.142;16.344;2023-04-08T17:20:12;5.90;99.90
5919;DHT22;2985;48.142;16.344;2023-04-08T17:25:21;5.80;99.90
5919;DHT22;2985;48.142;16.344;2023-04-08T17:30:31;5.70;99.90
5919;DHT22;2985;48.142;16.344;2023-04-08T17:35:41;5.70;99.90
5919;DHT22;2985;48.142;16.344;2023-04-08T17:40:50;5.70;99.90
5919;DHT22;2985;48.142;16.344;2023-04-08T17:46:01;5.70;99.90
5919;DHT22;2985;48.142;16.344;2023-04-08T17:51:11;5.80;99.90
5919;DHT22;2985;48.142;16.344;2023-04-08T17:56:20;5.80;99.90
5919;DHT22;2985;48.142;16.344;2023-04-08T18:01:31;5.80;99.90
5919;DHT22;2985;48.142;16.344;2023-04-08T18:06:40;5.80;99.90
5919;DHT22;2985;48.142;16.344;2023-04-08T18:11:50;5.90;99.90
5919;DHT22;2985;48.142;16.344;2023-04-08T18:16:59;5.90;99.90
5919;DHT22;2985;48.142;16.344;2023-04-08T18:22:09;5.80;99.90
5919;DHT22;2985;48.142;16.344;2023-04-08T18:27:18;5.70;99.90
5919;DHT22;2985;48.142;16.344;2023-04-08T18:32:27;5.70;99.90
5919;DHT22;2985;48.142;16.344;2023-04-08T18:37:37;5.60;99.90
5919;DHT22;2985;48.142;16.344;2023-04-08T18:42:46;5.60;99.90
5919;DHT22;2985;48.142;16.344;2023-04-08T18:47:55;5.50;99.90
5919;DHT22;2985;48.142;16.344;2023-04-08T18:53:05;5.40;99.90
5919;DHT22;2985;48.142;16.344;2023-04-08T18:58:14;5.50;99.90
5919;DHT22;2985;48.142;16.344;2023-04-08T19:03:23;5.50;99.90
5919;DHT22;2985;48.142;16.344;2023-04-08T19:08:35;5.60;99.90
5919;DHT22;2985;48.142;16.344;2023-04-08T19:13:44;5.50;99.90
5919;DHT22;2985;48.142;16.344;2023-04-08T19:18:54;5.40;99.90
5919;DHT22;2985;48.142;16.344;2023-04-08T19:24:04;5.50;99.90
5919;DHT22;2985;48.142;16.344;2023-04-08T19:29:14;5.50;99.90
5919;DHT22;2985;48.142;16.344;2023-04-08T19:34:23;5.60;99.90
5919;DHT22;2985;48.142;16.344;2023-04-08T19:39:33;5.50;99.90
5919;DHT22;2985;48.142;16.344;2023-04-08T19:44:42;5.40;99.90
5919;DHT22;2985;48.142;16.344;2023-04-08T19:49:51;5.40;99.90
5919;DHT22;2985;48.142;16.344;2023-04-08T19:55:00;5.40;99.90
5919;DHT22;2985;48.142;16.344;2023-04-08T20:00:10;5.30;99.90
5919;DHT22;2985;48.142;16.344;2023-04-08T20:05:20;5.40;99.90
5919;DHT22;2985;48.142;16.344;2023-04-08T20:10:29;5.40;99.90
